Time;durP1;ratioP1;P1;durP2;ratioP2;P2;SDS_P1;SDS_P2;PMS_P1;PMS_P2;Temp;Humidity;BMP_temperature;BMP_pressure;BME280_temperature;BME280_humidity;BME280_pressure;Samples;Min_cycle;Max_cycle;Signal;HPM_P1;HPM_P2
2022/12/03 00:02:22;;;;;;;;;;;;;;;21.02;47.87;102116.66;5042392;28;4171;-57
2022/12/03 00:04:49;;;;;;;;;;;;;;;21.01;48.00;102115.19;5052500;28;4142;-58
2022/12/03 00:07:16;;;;;;;;;;;;;;;21.05;47.60;102116.19;5043047;28;4190;-58
2022/12/03 00:09:43;;;;;;;;;;;;;;;21.08;47.64;102108.41;5041731;28;4197;-58
2022/12/03 00:12:09;;;;;;;;;;;;;;;21.09;47.84;102109.91;5037933;28;4242;-58
2022/12/03 00:14:35;;;;;;;;;;;;;;;21.08;48.09;102108.41;5036894;28;5374;-58
2022/12/03 00:17:09;;;;;;;;;;;;;;;21.06;48.45;102109.03;5032047;28;3992;-58
2022/12/03 00:19:35;;;;;;;;;;;;;;;21.05;48.21;102109.66;5051212;28;4184;-57
2022/12/03 00:22:02;;;;;;;;;;;;;;;21.04;48.39;102111.03;5040248;28;4167;-58
2022/12/03 00:24:28;;;;;;;;;;;;;;;21.04;48.31;102102.41;5036450;28;4175;-58
2022/12/03 00:26:54;;;;;;;;;;;;;;;21.05;48.05;102109.66;5050425;28;4186;-57
2022/12/03 00:29:21;;;;;;;;;;;;;;;21.04;48.22;102103.16;5048535;28;4142;-57
2022/12/03 00:31:47;;;;;;;;;;;;;;;21.03;48.21;102098.78;5039891;28;5267;-57
2022/12/03 00:34:13;;;;;;;;;;;;;;;21.02;48.21;102105.16;5037119;28;4098;-57
2022/12/03 00:36:40;;;;;;;;;;;;;;;21.00;48.20;102110.78;5035042;28;4175;-58
2022/12/03 00:39:06;;;;;;;;;;;;;;;20.99;48.16;102106.41;5039036;28;4032;-56
2022/12/03 00:41:33;;;;;;;;;;;;;;;20.98;48.38;102107.75;5039500;28;4102;-57
2022/12/03 00:43:59;;;;;;;;;;;;;;;20.98;48.32;102104.88;5040997;28;4049;-56
2022/12/03 00:46:25;;;;;;;;;;;;;;;20.98;48.33;102104.88;5035425;28;5369;-57
2022/12/03 00:48:52;;;;;;;;;;;;;;;20.96;48.43;102099.00;5037843;28;4155;-57
2022/12/03 00:51:18;;;;;;;;;;;;;;;20.94;48.31;102096.75;5038563;28;5422;-58
2022/12/03 00:53:44;;;;;;;;;;;;;;;20.93;48.26;102095.97;5037543;28;4207;-57
2022/12/03 00:56:11;;;;;;;;;;;;;;;20.94;48.21;102099.63;5040466;28;4178;-57
2022/12/03 00:58:37;;;;;;;;;;;;;;;20.97;47.94;102103.38;5046421;28;5011;-58
2022/12/03 01:01:03;;;;;;;;;;;;;;;20.97;47.93;102097.63;5038289;28;4120;-56
2022/12/03 01:03:30;;;;;;;;;;;;;;;20.97;48.04;102103.38;5035468;28;5065;-58
2022/12/03 01:05:56;;;;;;;;;;;;;;;20.97;47.96;102104.13;5040792;28;4194;-57
2022/12/03 01:08:23;;;;;;;;;;;;;;;20.97;47.72;102103.38;5040829;28;4348;-57
2022/12/03 01:10:49;;;;;;;;;;;;;;;20.97;47.81;102097.63;5042396;28;4015;-58
2022/12/03 01:13:15;;;;;;;;;;;;;;;20.96;48.10;102108.41;5036467;28;4198;-57
2022/12/03 01:15:42;;;;;;;;;;;;;;;20.95;48.20;102100.38;5043568;28;4141;-56
2022/12/03 01:18:08;;;;;;;;;;;;;;;20.94;48.13;102105.41;5044312;28;3949;-58
2022/12/03 01:20:35;;;;;;;;;;;;;;;20.93;48.15;102107.50;5035693;28;4164;-58
2022/12/03 01:23:01;;;;;;;;;;;;;;;20.91;48.27;102104.50;5043418;28;4189;-56
2022/12/03 01:25:28;;;;;;;;;;;;;;;20.92;48.23;102108.13;5043131;28;4203;-57
2022/12/03 01:27:54;;;;;;;;;;;;;;;20.92;48.14;102108.13;5039299;28;4210;-58
2022/12/03 01:30:20;;;;;;;;;;;;;;;20.91;48.16;102106.63;5048805;28;5590;-57
2022/12/03 01:32:47;;;;;;;;;;;;;;;20.90;48.16;102105.13;5034779;28;5392;-57
2022/12/03 01:35:13;;;;;;;;;;;;;;;20.90;47.84;102105.88;5050267;28;4032;-57
2022/12/03 01:37:39;;;;;;;;;;;;;;;20.92;48.01;102103.13;5036847;28;4101;-58
2022/12/03 01:40:06;;;;;;;;;;;;;;;20.95;47.91;102098.25;5044718;28;4078;-57
2022/12/03 01:42:33;;;;;;;;;;;;;;;20.95;47.99;102106.13;5043798;28;4126;-58
2022/12/03 01:44:59;;;;;;;;;;;;;;;20.95;47.98;102104.00;5048881;28;4024;-58
2022/12/03 01:47:29;;;;;;;;;;;;;;;20.93;48.06;102104.63;5038921;28;5137;-58
2022/12/03 01:49:58;;;;;;;;;;;;;;;20.93;48.09;102101.00;5045835;28;4198;-58
2022/12/03 01:52:27;;;;;;;;;;;;;;;20.92;48.08;102097.38;5043532;28;4188;-55
2022/12/03 01:54:54;;;;;;;;;;;;;;;20.91;47.99;102101.63;5052900;28;5296;-57
2022/12/03 01:57:22;;;;;;;;;;;;;;;20.90;48.09;102103.00;5046883;28;4111;-57
2022/12/03 01:59:49;;;;;;;;;;;;;;;20.89;48.15;102101.50;5046712;28;4135;-58
2022/12/03 02:02:22;;;;;;;;;;;;;;;20.87;48.08;102101.38;5042224;28;4255;-57
2022/12/03 02:04:49;;;;;;;;;;;;;;;20.87;48.23;102095.59;5054928;28;4160;-57
2022/12/03 02:07:22;;;;;;;;;;;;;;;20.86;48.15;102096.97;5046207;28;4109;-58
2022/12/03 02:09:49;;;;;;;;;;;;;;;20.87;47.81;102095.59;5042797;28;4228;-55
2022/12/03 02:12:16;;;;;;;;;;;;;;;20.89;47.64;102097.84;5050482;28;5280;-56
2022/12/03 02:14:42;;;;;;;;;;;;;;;20.88;47.77;102091.34;5036108;28;4117;-58
2022/12/03 02:17:18;;;;;;;;;;;;;;;20.90;47.94;102100.13;5041539;28;5232;-58
2022/12/03 02:19:44;;;;;;;;;;;;;;;20.90;47.75;102097.22;5045355;28;4126;-57
2022/12/03 02:22:20;;;;;;;;;;;;;;;20.92;47.54;102096.63;5046680;28;4280;-58
2022/12/03 02:24:48;;;;;;;;;;;;;;;20.91;47.68;102093.00;5043746;28;5582;-57
2022/12/03 02:27:14;;;;;;;;;;;;;;;20.89;47.74;102086.34;5044610;28;4094;-58
2022/12/03 02:29:40;;;;;;;;;;;;;;;20.88;48.01;102097.09;5043939;28;5328;-58
2022/12/03 02:32:07;;;;;;;;;;;;;;;20.88;48.00;102091.34;5044032;28;4254;-57
2022/12/03 02:34:34;;;;;;;;;;;;;;;20.86;47.96;102088.34;5048058;28;4184;-58
2022/12/03 02:37:00;;;;;;;;;;;;;;;20.87;48.06;102089.09;5032945;28;4231;-58
2022/12/03 02:39:26;;;;;;;;;;;;;;;20.84;47.96;102096.84;5050221;28;4196;-59
2022/12/03 02:44:38;;;;;;;;;;;;;;;20.83;47.92;102092.47;5028724;28;4212;-58
2022/12/03 02:47:04;;;;;;;;;;;;;;;20.84;47.97;102093.22;5044614;28;4297;-57
2022/12/03 02:49:31;;;;;;;;;;;;;;;20.85;47.68;102092.59;5041713;28;5204;-58
2022/12/03 02:51:57;;;;;;;;;;;;;;;20.85;47.66;102092.59;5044002;28;3997;-57
2022/12/03 02:54:24;;;;;;;;;;;;;;;20.86;47.62;102091.22;5029928;28;5405;-61
2022/12/03 02:56:50;;;;;;;;;;;;;;;20.87;47.48;102095.59;5043382;28;4182;-57
2022/12/03 02:59:16;;;;;;;;;;;;;;;20.90;47.57;102090.72;5030837;28;4203;-58
2022/12/03 03:01:43;;;;;;;;;;;;;;;20.88;47.78;102091.34;5030493;28;4494;-58
2022/12/03 03:04:09;;;;;;;;;;;;;;;20.88;47.92;102091.34;5025684;28;5403;-57
2022/12/03 03:06:36;;;;;;;;;;;;;;;20.88;47.99;102090.59;5027299;28;4181;-58
2022/12/03 03:09:02;;;;;;;;;;;;;;;20.85;47.91;102092.59;5024453;28;4240;-57
2022/12/03 03:11:28;;;;;;;;;;;;;;;20.86;47.94;102094.09;5031858;28;4119;-57
2022/12/03 03:13:55;;;;;;;;;;;;;;;20.83;47.85;102089.59;5032152;28;4197;-58
2022/12/03 03:16:21;;;;;;;;;;;;;;;20.82;47.98;102093.84;5031113;28;4105;-57
2022/12/03 03:18:48;;;;;;;;;;;;;;;20.82;47.81;102090.19;5032774;28;4181;-58
2022/12/03 03:21:14;;;;;;;;;;;;;;;20.80;47.98;102085.09;5035144;28;4178;-57
2022/12/03 03:23:40;;;;;;;;;;;;;;;20.80;47.91;102090.84;5030848;28;4204;-57
2022/12/03 03:26:07;;;;;;;;;;;;;;;20.81;47.82;102083.69;5037049;28;4292;-58
2022/12/03 03:28:34;;;;;;;;;;;;;;;20.81;47.49;102080.81;5037292;28;5394;-58
2022/12/03 03:31:03;;;;;;;;;;;;;;;20.83;47.80;102083.84;5049290;28;5457;-57
2022/12/03 03:33:29;;;;;;;;;;;;;;;20.83;47.68;102078.06;5046574;28;4229;-59
2022/12/03 03:35:55;;;;;;;;;;;;;;;20.83;47.71;102077.31;5041356;28;4200;-58
2022/12/03 03:38:22;;;;;;;;;;;;;;;20.82;47.51;102079.47;5044720;28;4053;-57
2022/12/03 03:40:48;;;;;;;;;;;;;;;20.83;47.93;102068.69;5036698;28;4191;-56
2022/12/03 03:43:14;;;;;;;;;;;;;;;20.83;47.73;102072.31;5046313;28;4138;-57
2022/12/03 03:45:41;;;;;;;;;;;;;;;20.82;47.81;102067.94;5049357;28;4572;-58
2022/12/03 03:48:07;;;;;;;;;;;;;;;20.83;47.76;102069.44;5036229;28;4040;-57
2022/12/03 03:50:34;;;;;;;;;;;;;;;20.84;47.57;102062.28;5053957;28;4196;-58
2022/12/03 03:53:00;;;;;;;;;;;;;;;20.85;47.44;102063.06;5043848;28;4196;-58
2022/12/03 03:55:26;;;;;;;;;;;;;;;20.89;47.40;102060.41;5046267;28;4128;-58
2022/12/03 03:57:53;;;;;;;;;;;;;;;20.87;47.58;102049.53;5043759;28;5278;-58
2022/12/03 04:00:19;;;;;;;;;;;;;;;20.89;47.56;102058.31;5041968;28;4138;-58
2022/12/03 04:02:45;;;;;;;;;;;;;;;20.90;47.86;102048.28;5051499;28;4096;-57
2022/12/03 04:05:19;;;;;;;;;;;;;;;20.89;47.80;102046.78;5040316;28;4308;-58
2022/12/03 04:07:45;;;;;;;;;;;;;;;20.90;48.11;102048.28;5038482;28;5234;-57
2022/12/03 04:12:57;;;;;;;;;;;;;;;20.90;48.02;102036.78;5049503;28;3971;-58
2022/12/03 04:15:23;;;;;;;;;;;;;;;20.89;48.07;102035.28;5051290;28;4476;-58
2022/12/03 04:18:41;;;;;;;;;;;;;;;20.89;48.08;102035.28;5050029;28;4135;-58
2022/12/03 04:20:36;;;;;;;;;;;;;;;20.88;48.06;102039.53;5049412;28;4488;-57
2022/12/03 04:23:02;;;;;;;;;;;;;;;20.88;47.91;102036.63;5048999;28;5427;-57
2022/12/03 04:30:59;;;;;;;;;;;;;;;20.83;47.75;102023.38;5037571;28;4731;-58
2022/12/03 04:36:11;;;;;;;;;;;;;;;20.82;47.82;102042.03;5041571;28;4015;-57
2022/12/03 04:38:37;;;;;;;;;;;;;;;20.81;47.79;102031.88;5038812;28;5369;-57
2022/12/03 04:41:03;;;;;;;;;;;;;;;20.83;47.45;102029.13;5035895;28;4136;-57
2022/12/03 04:43:31;;;;;;;;;;;;;;;20.83;47.44;102037.75;5043187;28;4273;-58
2022/12/03 04:45:57;;;;;;;;;;;;;;;20.86;47.21;102033.63;5037872;28;5500;-57
2022/12/03 04:48:24;;;;;;;;;;;;;;;20.86;47.29;102025.00;5042892;28;5046;-57
2022/12/03 04:50:50;;;;;;;;;;;;;;;20.86;47.44;102025.00;5039460;28;4131;-58
2022/12/03 04:53:16;;;;;;;;;;;;;;;20.88;47.51;102033.00;5036968;28;4134;-58
2022/12/03 04:55:43;;;;;;;;;;;;;;;20.89;47.43;102026.63;5040922;28;5355;-57
2022/12/03 04:58:09;;;;;;;;;;;;;;;20.89;47.57;102023.00;5038336;28;4198;-58
2022/12/03 05:00:35;;;;;;;;;;;;;;;20.89;47.68;102023.00;5033265;28;5339;-57
2022/12/03 05:03:02;;;;;;;;;;;;;;;20.91;47.56;102031.75;5040652;28;5300;-58
2022/12/03 05:05:28;;;;;;;;;;;;;;;20.91;47.74;102026.00;5034715;28;5043;-57
2022/12/03 05:07:55;;;;;;;;;;;;;;;20.89;47.79;102020.88;5042871;28;4181;-57
2022/12/03 05:10:22;;;;;;;;;;;;;;;20.89;47.86;102023.00;5043978;28;3971;-57
2022/12/03 05:12:48;;;;;;;;;;;;;;;20.88;47.83;102012.84;5043360;28;4145;-58
2022/12/03 05:15:15;;;;;;;;;;;;;;;20.87;47.98;102020.00;5038854;28;4135;-57
2022/12/03 05:17:41;;;;;;;;;;;;;;;20.87;47.91;102020.75;5038807;28;4196;-57
2022/12/03 05:22:53;;;;;;;;;;;;;;;20.86;47.78;102018.50;5031041;28;5484;-58
2022/12/03 05:25:19;;;;;;;;;;;;;;;20.85;47.65;102014.13;5041998;28;4225;-57
2022/12/03 05:27:45;;;;;;;;;;;;;;;20.84;47.56;102016.22;5040005;28;4188;-58
2022/12/03 05:30:12;;;;;;;;;;;;;;;20.82;47.63;102009.59;5024084;28;4191;-57
2022/12/03 05:32:38;;;;;;;;;;;;;;;20.83;47.39;102006.09;5036310;28;4141;-57
2022/12/03 05:35:06;;;;;;;;;;;;;;;20.84;47.27;102010.47;5042132;28;4187;-58
2022/12/03 05:37:32;;;;;;;;;;;;;;;20.84;47.15;102016.22;5035921;28;4222;-58
2022/12/03 05:39:59;;;;;;;;;;;;;;;20.84;47.33;102021.22;5034925;28;5225;-57
2022/12/03 05:45:10;;;;;;;;;;;;;;;20.86;47.44;102010.59;5036207;28;4159;-58
2022/12/03 05:47:37;;;;;;;;;;;;;;;20.87;47.33;102008.50;5039803;28;4057;-57
2022/12/03 05:50:03;;;;;;;;;;;;;;;20.88;47.35;102007.84;5038426;28;5283;-57
2022/12/03 05:52:30;;;;;;;;;;;;;;;20.88;47.46;102007.84;5036776;28;4442;-57
2022/12/03 05:54:56;;;;;;;;;;;;;;;20.90;47.51;102001.47;5039066;28;5115;-57
2022/12/03 05:57:23;;;;;;;;;;;;;;;20.91;47.60;102002.97;5035251;28;4163;-57
2022/12/03 05:59:49;;;;;;;;;;;;;;;20.90;47.57;102002.22;5041279;28;4139;-58
2022/12/03 06:02:15;;;;;;;;;;;;;;;20.89;47.65;102000.72;5051257;28;4177;-57
2022/12/03 06:04:42;;;;;;;;;;;;;;;20.88;47.75;102007.84;5042407;28;5306;-58
2022/12/03 06:07:08;;;;;;;;;;;;;;;20.87;47.60;101999.84;5036529;28;4111;-57
2022/12/03 06:09:39;;;;;;;;;;;;;;;20.86;47.65;101999.06;5039237;28;4113;-58
2022/12/03 06:12:07;;;;;;;;;;;;;;;20.87;47.58;102003.47;5041177;28;4902;-57
2022/12/03 06:14:34;;;;;;;;;;;;;;;20.85;47.60;102006.22;5041209;28;4059;-57
2022/12/03 06:17:01;;;;;;;;;;;;;;;20.84;47.72;102004.72;5041029;28;4212;-58
2022/12/03 06:19:27;;;;;;;;;;;;;;;20.84;47.49;102009.72;5047115;28;4200;-57
2022/12/03 06:21:54;;;;;;;;;;;;;;;20.83;47.52;102008.97;5040162;28;4219;-58
2022/12/03 06:24:20;;;;;;;;;;;;;;;20.82;47.30;102006.72;5044693;28;4206;-57
2022/12/03 06:26:46;;;;;;;;;;;;;;;20.81;47.39;102005.97;5043470;28;5736;-57
2022/12/03 06:29:13;;;;;;;;;;;;;;;20.81;47.17;102005.97;5047346;28;5462;-58
2022/12/03 06:31:39;;;;;;;;;;;;;;;20.80;47.16;102004.47;5039201;28;4030;-56
2022/12/03 06:34:06;;;;;;;;;;;;;;;20.84;47.14;102004.72;5046213;28;4253;-59
2022/12/03 06:36:32;;;;;;;;;;;;;;;20.87;47.44;102003.47;5041945;28;4205;-59
2022/12/03 06:38:58;;;;;;;;;;;;;;;20.87;47.56;102003.47;5045000;28;5354;-58
2022/12/03 06:41:25;;;;;;;;;;;;;;;20.88;47.46;102004.97;5043552;28;4211;-57
2022/12/03 06:43:51;;;;;;;;;;;;;;;20.87;47.25;102006.34;5040095;28;4288;-58
2022/12/03 06:46:17;;;;;;;;;;;;;;;20.88;47.47;102002.09;5047897;28;5208;-58
2022/12/03 06:48:44;;;;;;;;;;;;;;;20.90;47.54;102007.22;5047247;28;4165;-58
2022/12/03 06:51:10;;;;;;;;;;;;;;;20.90;47.72;102001.47;5041659;28;4200;-59
2022/12/03 06:53:36;;;;;;;;;;;;;;;20.92;48.02;101999.47;5038210;28;4309;-59
2022/12/03 06:56:03;;;;;;;;;;;;;;;20.94;47.88;102001.72;5042222;28;4186;-58
2022/12/03 06:58:29;;;;;;;;;;;;;;;20.91;47.89;102005.84;5030545;28;5479;-58
2022/12/03 07:00:55;;;;;;;;;;;;;;;20.93;48.38;102003.84;5033047;28;4521;-58
2022/12/03 07:03:22;;;;;;;;;;;;;;;20.93;48.47;102000.97;5032948;28;4247;-58
2022/12/03 07:05:48;;;;;;;;;;;;;;;20.85;48.57;101999.72;5035888;28;4165;-58
2022/12/03 07:08:14;;;;;;;;;;;;;;;20.90;48.47;101999.34;5048360;28;4226;-59
2022/12/03 07:10:41;;;;;;;;;;;;;;;20.84;49.04;102001.81;5038279;28;4013;-58
2022/12/03 07:13:07;;;;;;;;;;;;;;;20.86;48.91;102001.97;5037316;28;4210;-57
2022/12/03 07:15:34;;;;;;;;;;;;;;;20.80;48.99;102000.81;5037026;28;4093;-56
2022/12/03 07:18:00;;;;;;;;;;;;;;;20.77;48.19;101997.06;5044294;28;5296;-54
2022/12/03 07:20:26;;;;;;;;;;;;;;;20.78;47.25;102006.47;5045962;28;4174;-51
2022/12/03 07:22:53;;;;;;;;;;;;;;;18.82;40.19;102007.13;5041568;28;4178;-53
2022/12/03 07:25:19;;;;;;;;;;;;;;;17.28;37.45;102000.03;5043407;28;4179;-58
2022/12/03 07:27:49;;;;;;;;;;;;;;;18.69;38.52;102006.84;5049119;28;3916;-57
2022/12/03 07:30:15;;;;;;;;;;;;;;;19.59;38.78;101999.47;5049437;28;3920;-57
2022/12/03 07:32:41;;;;;;;;;;;;;;;20.03;39.52;102003.84;5055698;28;4132;-58
2022/12/03 07:35:08;;;;;;;;;;;;;;;20.25;40.63;102009.59;5057841;28;4239;-57
2022/12/03 07:37:34;;;;;;;;;;;;;;;20.37;40.59;102004.59;5056457;28;4171;-58
2022/12/03 07:40:00;;;;;;;;;;;;;;;20.41;40.85;102004.88;5057918;28;4009;-58
2022/12/03 07:42:27;;;;;;;;;;;;;;;20.44;41.72;102009.38;5058885;28;4062;-58
2022/12/03 07:44:53;;;;;;;;;;;;;;;20.45;42.09;101987.84;5054183;28;3929;-56
2022/12/03 07:47:20;;;;;;;;;;;;;;;20.49;42.40;101999.63;5054174;28;4049;-57
2022/12/03 07:49:47;;;;;;;;;;;;;;;20.49;42.70;102001.75;5052904;28;5161;-57
2022/12/03 07:52:13;;;;;;;;;;;;;;;20.47;42.99;101996.63;5053058;28;4041;-58
2022/12/03 07:54:40;;;;;;;;;;;;;;;20.51;42.86;101996.13;5048160;28;4067;-58
2022/12/03 07:57:06;;;;;;;;;;;;;;;20.48;42.77;102006.03;5054793;28;4077;-58
2022/12/03 07:59:32;;;;;;;;;;;;;;;20.49;42.79;102002.50;5046282;28;4006;-57
2022/12/03 08:01:59;;;;;;;;;;;;;;;20.47;42.91;101996.63;5045683;28;4089;-55
2022/12/03 08:04:25;;;;;;;;;;;;;;;20.48;42.93;101995.25;5052671;28;4797;-59
2022/12/03 08:06:51;;;;;;;;;;;;;;;20.48;42.69;101995.25;5046291;28;3909;-57
2022/12/03 08:09:18;;;;;;;;;;;;;;;20.47;42.73;101995.88;5054968;28;4031;-58
2022/12/03 08:11:45;;;;;;;;;;;;;;;20.46;42.69;101989.38;5047985;28;4112;-58
2022/12/03 08:14:12;;;;;;;;;;;;;;;20.48;42.61;101989.50;5048286;28;5521;-57
2022/12/03 08:16:39;;;;;;;;;;;;;;;20.46;42.71;101991.50;5042293;28;4040;-58
2022/12/03 08:19:09;;;;;;;;;;;;;;;20.45;42.55;101987.84;5042386;28;3908;-58
2022/12/03 08:21:35;;;;;;;;;;;;;;;20.43;42.48;101993.50;5051495;28;5424;-57
2022/12/03 08:24:10;;;;;;;;;;;;;;;20.40;42.27;101974.59;5046446;28;4084;-57
2022/12/03 08:26:36;;;;;;;;;;;;;;;20.46;42.51;101989.38;5044741;28;4206;-58
2022/12/03 08:29:07;;;;;;;;;;;;;;;20.46;42.32;101986.50;5049857;28;3973;-58
2022/12/03 08:31:33;;;;;;;;;;;;;;;20.46;42.29;101983.63;5047316;28;4029;-58
2022/12/03 08:34:05;;;;;;;;;;;;;;;20.48;42.44;101983.00;5046698;28;4141;-56
2022/12/03 08:36:32;;;;;;;;;;;;;;;20.48;42.44;101983.00;5042077;28;4305;-57
2022/12/03 08:38:59;;;;;;;;;;;;;;;20.49;42.46;101970.09;5047303;28;4016;-58
2022/12/03 08:44:27;;;;;;;;;;;;;;;20.49;42.37;101976.59;5039882;28;4166;-56
2022/12/03 08:47:05;;;;;;;;;;;;;;;20.49;42.19;101973.72;5039716;28;4278;-56
2022/12/03 08:49:31;;;;;;;;;;;;;;;20.50;42.23;101975.25;5047412;28;4624;-58
2022/12/03 08:51:58;;;;;;;;;;;;;;;20.51;42.10;101976.00;5046218;28;4184;-58
2022/12/03 08:54:25;;;;;;;;;;;;;;;20.49;42.06;101973.72;5047840;28;5313;-59
2022/12/03 08:56:52;;;;;;;;;;;;;;;20.50;42.26;101978.13;5043580;28;3989;-58
2022/12/03 08:59:23;;;;;;;;;;;;;;;20.48;42.06;101972.25;5042502;28;4256;-58
2022/12/03 09:01:50;;;;;;;;;;;;;;;20.48;41.83;101986.63;5040465;28;5434;-58
2022/12/03 09:04:18;;;;;;;;;;;;;;;20.48;41.96;101985.88;5038277;28;3995;-57
2022/12/03 09:06:45;;;;;;;;;;;;;;;20.46;41.77;101986.50;5042751;28;4272;-58
2022/12/03 09:09:11;;;;;;;;;;;;;;;20.46;41.83;101982.88;5040318;28;4015;-57
2022/12/03 09:11:37;;;;;;;;;;;;;;;20.45;41.69;101976.34;5044438;28;4112;-57
2022/12/03 09:14:04;;;;;;;;;;;;;;;20.46;41.71;101977.84;5041757;28;4211;-58
2022/12/03 09:16:30;;;;;;;;;;;;;;;20.46;41.58;101977.84;5035098;28;4092;-58
2022/12/03 09:18:56;;;;;;;;;;;;;;;20.48;41.48;101968.63;5037506;28;4321;-57
2022/12/03 09:21:23;;;;;;;;;;;;;;;20.47;41.52;101969.97;5043076;28;3991;-57
2022/12/03 09:23:49;;;;;;;;;;;;;;;20.48;41.31;101974.38;5041169;28;4125;-57
2022/12/03 09:26:15;;;;;;;;;;;;;;;20.47;41.28;101973.59;5041295;28;4149;-57
2022/12/03 09:28:42;;;;;;;;;;;;;;;20.50;41.46;101971.59;5044064;28;5539;-57
2022/12/03 09:31:08;;;;;;;;;;;;;;;20.49;41.26;101972.97;5044280;28;4161;-56
2022/12/03 09:33:34;;;;;;;;;;;;;;;20.49;41.45;101952.84;5026885;28;5208;-56
2022/12/03 09:36:01;;;;;;;;;;;;;;;20.53;41.33;101963.88;5035506;28;4011;-57
2022/12/03 09:38:27;;;;;;;;;;;;;;;20.58;41.39;101960.63;5044800;28;5322;-58
2022/12/03 09:40:53;;;;;;;;;;;;;;;20.62;41.45;101946.50;5037333;28;4032;-57
2022/12/03 09:43:20;;;;;;;;;;;;;;;20.62;41.62;101942.88;5044775;28;5058;-58
2022/12/03 09:45:46;;;;;;;;;;;;;;;20.58;41.91;101949.13;5037628;28;4179;-58
2022/12/03 09:48:13;;;;;;;;;;;;;;;20.59;41.94;101944.88;5040213;28;5260;-58
2022/12/03 09:50:40;;;;;;;;;;;;;;;20.59;41.99;101938.38;5043128;28;4479;-59
2022/12/03 09:53:07;;;;;;;;;;;;;;;20.59;42.17;101936.25;5037000;28;4194;-58
2022/12/03 09:55:34;;;;;;;;;;;;;;;20.68;42.07;101946.13;5036034;28;4124;-60
2022/12/03 09:58:00;;;;;;;;;;;;;;;20.74;42.55;101946.50;5041312;28;4352;-60
2022/12/03 10:00:27;;;;;;;;;;;;;;;20.73;42.47;101942.16;5041302;28;5262;-58
2022/12/03 10:02:55;;;;;;;;;;;;;;;20.73;42.50;101933.50;5034205;28;4010;-58
2022/12/03 10:05:21;;;;;;;;;;;;;;;20.75;42.68;101932.88;5036097;28;4233;-58
2022/12/03 10:07:48;;;;;;;;;;;;;;;20.76;43.05;101929.38;5032125;28;5206;-58
2022/12/03 10:10:15;;;;;;;;;;;;;;;20.77;43.10;101924.34;5036803;28;4184;-59
2022/12/03 10:12:41;;;;;;;;;;;;;;;20.78;43.17;101926.63;5042867;28;4189;-58
2022/12/03 10:15:11;;;;;;;;;;;;;;;20.78;43.53;101926.63;5038818;28;4279;-59
2022/12/03 10:17:38;;;;;;;;;;;;;;;20.76;44.03;101935.13;5033793;28;4003;-59
2022/12/03 10:20:04;;;;;;;;;;;;;;;20.77;43.67;101930.84;5032245;28;4255;-59
2022/12/03 10:22:35;;;;;;;;;;;;;;;20.80;44.25;101923.88;5027357;28;4123;-58
2022/12/03 10:25:09;;;;;;;;;;;;;;;20.80;44.63;101929.63;5035451;28;4213;-58
2022/12/03 10:27:54;;;;;;;;;;;;;;;20.84;45.24;101920.47;5006058;28;4372;-58
2022/12/03 10:30:25;;;;;;;;;;;;;;;20.84;45.23;101924.09;5038423;28;4051;-59
2022/12/03 10:32:51;;;;;;;;;;;;;;;20.84;45.00;101914.72;5024977;28;4327;-58
2022/12/03 10:35:18;;;;;;;;;;;;;;;20.83;45.04;101910.34;5032054;28;4003;-58
2022/12/03 10:37:57;;;;;;;;;;;;;;;20.84;45.83;101911.84;5047824;28;5423;-58
2022/12/03 10:40:27;;;;;;;;;;;;;;;20.81;45.71;101908.09;5049382;28;4160;-58
2022/12/03 10:43:11;;;;;;;;;;;;;;;20.80;45.77;101903.72;5046540;28;4121;-58
2022/12/03 10:45:37;;;;;;;;;;;;;;;20.82;46.10;101912.47;5045687;28;4153;-58
2022/12/03 10:48:13;;;;;;;;;;;;;;;20.82;45.80;101915.34;5049419;28;4930;-58
2022/12/03 10:50:47;;;;;;;;;;;;;;;20.81;46.06;101913.84;5054773;28;4134;-58
2022/12/03 10:53:13;;;;;;;;;;;;;;;20.82;46.00;101915.34;5048845;28;4257;-58
2022/12/03 10:55:40;;;;;;;;;;;;;;;20.85;45.92;101916.97;5048647;28;5210;-58
2022/12/03 10:58:17;;;;;;;;;;;;;;;20.85;45.99;101919.84;5052139;28;4177;-59
2022/12/03 11:00:44;;;;;;;;;;;;;;;20.88;45.96;101914.97;5055309;28;4262;-58
2022/12/03 11:03:16;;;;;;;;;;;;;;;20.88;46.15;101915.72;5053206;28;4400;-58
2022/12/03 11:05:43;;;;;;;;;;;;;;;20.86;46.25;101921.34;5057156;28;4283;-58
2022/12/03 11:08:19;;;;;;;;;;;;;;;20.84;46.02;101906.81;5058601;28;4179;-58
2022/12/03 11:10:59;;;;;;;;;;;;;;;20.84;46.15;101906.06;5049592;28;5286;-58
2022/12/03 11:13:26;;;;;;;;;;;;;;;20.82;45.99;101900.97;5052343;28;4204;-58
2022/12/03 11:15:52;;;;;;;;;;;;;;;20.83;45.90;101911.09;5058807;28;5244;-58
2022/12/03 11:18:37;;;;;;;;;;;;;;;20.83;46.12;101899.56;5055718;28;4081;-58
2022/12/03 11:21:10;;;;;;;;;;;;;;;20.80;46.05;101897.97;5055060;28;6244;-58
2022/12/03 11:23:45;;;;;;;;;;;;;;;20.81;45.92;101892.94;5056876;28;4014;-56
2022/12/03 11:26:12;;;;;;;;;;;;;;;20.80;46.05;101888.56;5033394;28;5364;-57
2022/12/03 11:28:44;;;;;;;;;;;;;;;20.80;45.88;101889.31;5037253;28;4146;-58
2022/12/03 11:31:29;;;;;;;;;;;;;;;20.79;45.96;101882.03;5038775;28;5261;-58
2022/12/03 11:34:15;;;;;;;;;;;;;;;20.81;45.87;101885.06;5042736;28;4139;-58
2022/12/03 11:37:00;;;;;;;;;;;;;;;20.79;45.83;101870.53;5037709;28;5569;-58
2022/12/03 11:39:45;;;;;;;;;;;;;;;20.80;45.76;101874.94;5041198;28;4158;-58
2022/12/03 11:42:27;;;;;;;;;;;;;;;20.82;45.65;101872.19;5038901;28;4156;-58
2022/12/03 11:45:02;;;;;;;;;;;;;;;20.81;45.93;101870.66;5043564;28;4114;-58
2022/12/03 11:47:29;;;;;;;;;;;;;;;20.81;45.92;101864.91;5042097;28;4276;-57
2022/12/03 11:49:56;;;;;;;;;;;;;;;20.82;45.78;101869.28;5043735;28;4160;-57
2022/12/03 11:52:23;;;;;;;;;;;;;;;20.80;45.79;101866.28;5040401;28;6575;-58
2022/12/03 11:55:00;;;;;;;;;;;;;;;20.83;45.82;101859.28;5042408;28;5242;-57
2022/12/03 11:57:28;;;;;;;;;;;;;;;20.81;45.78;101859.16;5045842;28;4113;-58
2022/12/03 12:00:13;;;;;;;;;;;;;;;20.83;45.93;101853.50;5047378;28;4159;-58
2022/12/03 12:02:40;;;;;;;;;;;;;;;20.82;46.03;101857.00;5042758;28;5294;-58
2022/12/03 12:05:16;;;;;;;;;;;;;;;20.81;45.86;101855.53;5043033;28;4148;-58
2022/12/03 12:07:46;;;;;;;;;;;;;;;20.79;46.05;101859.03;5042365;28;4127;-58
2022/12/03 12:10:13;;;;;;;;;;;;;;;20.79;46.07;101858.28;5040574;28;4206;-57
2022/12/03 12:12:43;;;;;;;;;;;;;;;20.79;45.87;101859.03;5050255;28;4211;-58
2022/12/03 12:15:33;;;;;;;;;;;;;;;20.80;45.78;101859.75;5052223;28;4136;-57
2022/12/03 12:18:17;;;;;;;;;;;;;;;20.80;45.83;101851.13;5048241;28;4181;-57
2022/12/03 12:20:44;;;;;;;;;;;;;;;20.80;45.87;101851.91;5047610;28;4154;-58
2022/12/03 12:23:20;;;;;;;;;;;;;;;20.81;46.02;101853.38;5047401;28;4031;-57
2022/12/03 12:25:48;;;;;;;;;;;;;;;20.81;45.82;101859.16;5045570;28;4180;-57
2022/12/03 12:28:19;;;;;;;;;;;;;;;20.83;46.00;101859.28;5048964;28;4115;-58
2022/12/03 12:30:45;;;;;;;;;;;;;;;20.84;45.92;101852.13;5049178;28;5372;-57
2022/12/03 12:33:25;;;;;;;;;;;;;;;20.82;45.96;101852.03;5039175;28;4012;-57
2022/12/03 12:35:51;;;;;;;;;;;;;;;20.83;46.00;101859.28;5048275;28;4090;-57
2022/12/03 12:38:18;;;;;;;;;;;;;;;20.84;45.90;101854.25;5047455;28;5110;-58
2022/12/03 12:40:45;;;;;;;;;;;;;;;20.84;45.87;101842.75;5051322;28;4245;-56
2022/12/03 12:43:19;;;;;;;;;;;;;;;20.84;45.95;101840.59;5049722;28;4011;-58
2022/12/03 12:45:50;;;;;;;;;;;;;;;20.84;45.87;101831.22;5042365;28;5244;-57
2022/12/03 12:48:19;;;;;;;;;;;;;;;20.83;46.02;101832.63;5048013;28;3970;-58
2022/12/03 12:50:46;;;;;;;;;;;;;;;20.82;46.04;101837.63;5047359;28;4134;-57
2022/12/03 12:53:17;;;;;;;;;;;;;;;20.83;45.82;101841.25;5049173;28;4178;-58
2022/12/03 12:55:43;;;;;;;;;;;;;;;20.82;45.89;101825.34;5044625;28;4874;-58
2022/12/03 12:58:13;;;;;;;;;;;;;;;20.81;46.04;101824.59;5046133;28;4160;-57
2022/12/03 13:00:40;;;;;;;;;;;;;;;20.82;45.90;101825.34;5042637;28;4218;-57
2022/12/03 13:03:06;;;;;;;;;;;;;;;20.81;45.88;101818.09;5047565;28;4182;-58
2022/12/03 13:05:39;;;;;;;;;;;;;;;20.82;46.12;101811.72;5051578;28;4285;-57
2022/12/03 13:08:26;;;;;;;;;;;;;;;20.81;45.93;101807.31;5047774;28;4154;-58
2022/12/03 13:10:56;;;;;;;;;;;;;;;20.83;45.79;101803.84;5038978;28;5189;-58
2022/12/03 13:13:23;;;;;;;;;;;;;;;20.84;45.83;101797.41;5044963;28;4199;-58
2022/12/03 13:15:56;;;;;;;;;;;;;;;20.83;45.99;101795.19;5045253;28;4087;-57